createdAt,value
2022-09-10T00:01:30.424Z,16.02
2022-09-10T00:03:58.792Z,16.07
2022-09-10T00:06:27.634Z,16.13
2022-09-10T00:08:57.314Z,16.00
2022-09-10T00:11:32.160Z,16.13
2022-09-10T00:14:00.718Z,16.31
2022-09-10T00:16:32.239Z,16.18
2022-09-10T00:19:01.328Z,16.18
2022-09-10T00:21:30.002Z,16.27
2022-09-10T00:23:58.761Z,16.13
2022-09-10T00:26:29.073Z,16.12
2022-09-10T00:28:59.678Z,16.11
2022-09-10T00:31:32.168Z,16.07
2022-09-10T00:34:02.402Z,16.00
2022-09-10T00:36:33.822Z,16.07
2022-09-10T00:39:04.194Z,15.98
2022-09-10T00:41:32.590Z,15.96
2022-09-10T00:44:02.326Z,15.90
2022-09-10T00:46:42.773Z,16.03
2022-09-10T00:49:17.746Z,16.08
2022-09-10T00:51:48.255Z,16.02
2022-09-10T00:54:20.325Z,15.94
2022-09-10T00:56:50.675Z,16.01
2022-09-10T00:59:21.232Z,15.94
2022-09-10T01:01:51.307Z,15.90
2022-09-10T01:04:20.052Z,15.97
2022-09-10T01:06:49.884Z,16.02
2022-09-10T01:09:18.589Z,16.01
2022-09-10T01:12:00.774Z,16.07
2022-09-10T01:14:48.669Z,16.00
2022-09-10T01:17:31.467Z,16.11
2022-09-10T01:20:28.850Z,16.03
2022-09-10T01:23:22.160Z,15.98
2022-09-10T01:26:04.656Z,15.98
2022-09-10T01:28:41.346Z,16.03
2022-09-10T01:31:15.547Z,15.98
2022-09-10T01:33:51.194Z,16.03
2022-09-10T01:36:24.228Z,16.00
2022-09-10T01:38:54.409Z,15.96
2022-09-10T01:41:25.989Z,15.94
2022-09-10T01:43:56.072Z,15.93
2022-09-10T01:46:37.016Z,15.93
2022-09-10T01:49:18.899Z,15.95
2022-09-10T01:52:08.879Z,15.82
2022-09-10T01:54:50.863Z,15.85
2022-09-10T01:57:29.870Z,15.89
2022-09-10T02:00:07.252Z,15.90
2022-09-10T02:02:45.979Z,15.85
2022-09-10T02:05:16.739Z,15.91
2022-09-10T02:07:47.992Z,15.96
2022-09-10T02:10:17.073Z,15.87
2022-09-10T02:12:47.727Z,15.89
2022-09-10T02:15:46.465Z,15.91
2022-09-10T02:18:22.186Z,16.04
2022-09-10T02:20:52.668Z,15.98
2022-09-10T02:23:27.360Z,15.93
2022-09-10T02:25:55.507Z,16.00
2022-09-10T02:28:29.449Z,16.04
2022-09-10T02:30:58.961Z,16.02
2022-09-10T02:33:28.119Z,15.93
2022-09-10T02:35:56.965Z,15.94
2022-09-10T02:38:25.083Z,15.85
2022-09-10T02:40:59.281Z,15.84
2022-09-10T02:43:27.484Z,15.80
2022-09-10T02:46:00.621Z,15.79
2022-09-10T02:48:31.063Z,15.79
2022-09-10T02:51:00.018Z,15.79
2022-09-10T02:53:31.037Z,15.77
2022-09-10T02:56:03.107Z,15.68
2022-09-10T02:58:32.124Z,15.66
2022-09-10T03:01:10.222Z,15.64
2022-09-10T03:03:44.920Z,15.67
2022-09-10T03:06:16.882Z,15.62
2022-09-10T03:10:14.046Z,15.61
2022-09-10T03:12:48.231Z,15.58
2022-09-10T03:15:18.019Z,15.67
2022-09-10T03:17:48.992Z,15.50
2022-09-10T03:20:18.185Z,15.57
2022-09-10T03:22:47.336Z,15.61
2022-09-10T03:25:17.320Z,15.52
2022-09-10T03:27:45.582Z,15.61
2022-09-10T03:30:14.465Z,15.51
2022-09-10T03:32:43.328Z,15.54
2022-09-10T03:35:15.812Z,15.49
2022-09-10T03:37:44.261Z,15.58
2022-09-10T03:40:12.511Z,15.54
2022-09-10T03:42:40.636Z,15.50
2022-09-10T03:45:09.697Z,15.57
2022-09-10T03:47:38.423Z,15.61
2022-09-10T03:50:07.652Z,15.68
2022-09-10T03:52:38.521Z,15.61
2022-09-10T03:55:07.959Z,15.65
2022-09-10T03:57:35.982Z,15.64
2022-09-10T04:00:05.844Z,15.65
2022-09-10T04:02:44.155Z,15.59
2022-09-10T04:05:13.533Z,15.58
2022-09-10T04:07:44.096Z,15.62
2022-09-10T04:10:15.899Z,15.70
2022-09-10T04:12:44.421Z,15.65
2022-09-10T04:15:13.332Z,15.64
2022-09-10T04:17:41.550Z,15.64
2022-09-10T04:20:10.997Z,15.73
2022-09-10T04:22:39.670Z,15.73
2022-09-10T04:25:09.878Z,15.66
2022-09-10T04:27:39.535Z,15.70
2022-09-10T04:30:09.346Z,15.83
2022-09-10T04:32:37.710Z,15.65
2022-09-10T04:35:07.728Z,15.75
2022-09-10T04:37:37.196Z,15.66
2022-09-10T04:40:06.202Z,15.66
2022-09-10T04:42:38.399Z,15.62
2022-09-10T04:45:08.626Z,15.62
2022-09-10T04:47:37.988Z,15.58
2022-09-10T04:50:09.253Z,15.43
2022-09-10T04:52:37.583Z,15.56
2022-09-10T04:55:06.510Z,15.53
2022-09-10T04:57:34.582Z,15.51
2022-09-10T05:00:06.391Z,15.58
2022-09-10T05:02:37.679Z,15.59
2022-09-10T05:05:06.788Z,15.56
2022-09-10T05:07:35.070Z,15.58
2022-09-10T05:10:04.202Z,15.58
2022-09-10T05:12:32.397Z,15.53
2022-09-10T05:15:00.663Z,15.63
2022-09-10T05:17:31.085Z,15.56
2022-09-10T05:19:59.309Z,15.62
2022-09-10T05:22:34.925Z,15.67
2022-09-10T05:25:06.474Z,15.67
2022-09-10T05:27:34.593Z,15.61
2022-09-10T05:30:03.405Z,15.61
2022-09-10T05:32:33.860Z,15.62
2022-09-10T05:35:02.328Z,15.51
2022-09-10T05:37:31.971Z,15.65
2022-09-10T05:40:00.671Z,15.58
2022-09-10T05:42:28.726Z,15.70
2022-09-10T05:44:58.065Z,15.70
2022-09-10T05:47:28.218Z,15.66
2022-09-10T05:49:58.233Z,15.61
2022-09-10T05:52:26.347Z,15.52
2022-09-10T05:54:58.092Z,15.53
2022-09-10T05:57:26.280Z,15.59
2022-09-10T05:59:54.391Z,15.60
2022-09-10T06:02:24.279Z,15.57
2022-09-10T06:04:54.277Z,15.67
2022-09-10T06:07:25.245Z,15.62
2022-09-10T06:09:54.983Z,15.61
2022-09-10T06:12:46.716Z,15.59
2022-09-10T06:15:15.988Z,15.68
2022-09-10T06:17:45.542Z,15.59
2022-09-10T06:20:15.687Z,15.66
2022-09-10T06:22:47.039Z,15.59
2022-09-10T06:25:15.237Z,15.63
2022-09-10T06:27:44.490Z,15.68
2022-09-10T06:30:12.952Z,15.65
2022-09-10T06:32:44.838Z,15.58
2022-09-10T06:35:17.119Z,15.71
2022-09-10T06:37:52.442Z,15.77
2022-09-10T06:40:21.284Z,15.72
2022-09-10T06:42:50.913Z,15.66
2022-09-10T06:45:21.731Z,15.62
2022-09-10T06:48:48.104Z,15.69
2022-09-10T06:51:50.483Z,15.76
2022-09-10T06:54:31.288Z,15.67
2022-09-10T07:01:29.489Z,15.75
2022-09-10T07:04:41.314Z,15.75
2022-09-10T07:07:21.968Z,15.72
2022-09-10T07:10:41.723Z,15.80
2022-09-10T07:13:28.624Z,15.87
2022-09-10T07:15:57.747Z,15.96
2022-09-10T07:18:32.336Z,15.95
2022-09-10T07:21:08.747Z,15.88
2022-09-10T07:23:48.570Z,15.92
2022-09-10T07:26:20.845Z,15.88
2022-09-10T07:28:52.709Z,15.98
2022-09-10T07:31:23.900Z,15.95
2022-09-10T07:34:08.781Z,15.88
2022-09-10T07:36:40.148Z,15.83
2022-09-10T07:39:26.171Z,15.95
2022-09-10T07:42:01.668Z,15.96
2022-09-10T07:44:42.810Z,15.89
2022-09-10T07:47:11.428Z,15.94
2022-09-10T07:49:39.823Z,16.03
2022-09-10T07:52:09.269Z,16.09
2022-09-10T07:54:45.156Z,16.08
2022-09-10T07:57:15.018Z,16.00
2022-09-10T07:59:43.602Z,15.97
2022-09-10T08:02:16.084Z,15.96
2022-09-10T08:04:53.226Z,15.94
2022-09-10T08:07:22.243Z,16.06
2022-09-10T08:10:21.283Z,15.87
2022-09-10T08:12:54.860Z,15.96
2022-09-10T08:19:39.690Z,15.98
2022-09-10T08:22:12.790Z,16.02
2022-09-10T08:24:48.625Z,16.17
2022-09-10T08:27:18.135Z,16.16
2022-09-10T08:29:50.011Z,16.18
2022-09-10T08:32:18.466Z,16.17
2022-09-10T08:34:47.387Z,16.18
2022-09-10T08:37:16.752Z,16.24
2022-09-10T08:39:45.062Z,16.15
2022-09-10T08:42:20.473Z,16.29
2022-09-10T08:44:57.221Z,16.29
2022-09-10T08:47:35.742Z,16.29
2022-09-10T08:50:13.907Z,16.37
2022-09-10T08:52:48.935Z,16.44
2022-09-10T08:55:28.943Z,16.42
2022-09-10T08:58:01.621Z,16.45
2022-09-10T09:00:35.085Z,16.60
2022-09-10T09:03:16.020Z,16.54
2022-09-10T09:05:48.428Z,16.46
2022-09-10T09:08:21.982Z,16.47
2022-09-10T09:10:57.319Z,16.34
2022-09-10T09:13:51.207Z,16.40
2022-09-10T09:16:41.822Z,16.36
2022-09-10T09:19:20.401Z,16.37
2022-09-10T09:21:53.330Z,16.33
2022-09-10T09:24:28.992Z,16.32
2022-09-10T09:27:02.276Z,16.29
2022-09-10T09:29:35.925Z,16.12
2022-09-10T09:32:07.858Z,16.31
2022-09-10T09:34:41.248Z,16.36
2022-09-10T09:37:18.707Z,16.34
2022-09-10T09:39:54.667Z,16.27
2022-09-10T09:42:30.333Z,16.14
2022-09-10T09:45:11.700Z,16.02
2022-09-10T09:47:45.821Z,16.10
2022-09-10T09:50:18.439Z,16.16
2022-09-10T09:52:47.243Z,16.27
2022-09-10T09:55:24.718Z,16.25
2022-09-10T09:58:31.210Z,16.22
2022-09-10T10:01:21.885Z,16.15
2022-09-10T10:03:54.594Z,16.09
2022-09-10T10:06:25.255Z,16.06
2022-09-10T10:09:00.222Z,16.09
2022-09-10T10:11:50.508Z,16.05
2022-09-10T10:14:38.340Z,16.14
2022-09-10T10:17:43.624Z,16.06
2022-09-10T10:20:18.296Z,16.06
2022-09-10T10:22:48.526Z,16.11
2022-09-10T10:25:41.571Z,16.16
2022-09-10T10:28:22.180Z,16.25
2022-09-10T10:30:56.690Z,16.34
2022-09-10T10:33:32.328Z,16.35
2022-09-10T10:36:12.020Z,16.41
2022-09-10T10:38:42.630Z,16.41
2022-09-10T10:41:50.872Z,16.55
2022-09-10T10:44:42.310Z,16.46
2022-09-10T10:47:30.035Z,16.59
2022-09-10T10:50:09.999Z,16.67
2022-09-10T10:52:48.748Z,16.87
2022-09-10T10:55:24.528Z,16.84
2022-09-10T10:58:13.075Z,16.83
2022-09-10T11:00:44.618Z,16.92
2022-09-10T11:03:21.310Z,16.98
2022-09-10T11:05:53.123Z,16.93
2022-09-10T11:08:31.511Z,16.93
2022-09-10T11:11:05.967Z,17.14
2022-09-10T11:13:40.633Z,17.00
2022-09-10T11:16:15.169Z,16.88
2022-09-10T11:18:46.477Z,16.87
2022-09-10T11:21:23.341Z,16.98
2022-09-10T11:24:00.043Z,17.07
2022-09-10T11:26:33.862Z,17.14
2022-09-10T11:29:14.383Z,17.15
2022-09-10T11:31:45.216Z,17.27
2022-09-10T11:34:20.066Z,17.21
2022-09-10T11:36:53.556Z,17.10
2022-09-10T11:39:33.346Z,17.10
2022-09-10T11:42:06.034Z,17.10
2022-09-10T11:44:46.367Z,17.05
2022-09-10T11:47:20.568Z,17.30
2022-09-10T11:49:55.474Z,17.21
2022-09-10T11:52:25.944Z,17.12
2022-09-10T11:54:57.410Z,17.11
2022-09-10T11:57:35.187Z,17.26
2022-09-10T12:00:15.883Z,17.18
2022-09-10T12:03:20.407Z,17.19
2022-09-10T12:06:00.768Z,17.07
2022-09-10T12:08:49.627Z,17.05
2022-09-10T12:11:28.472Z,17.16
2022-09-10T12:13:57.697Z,17.35
2022-09-10T12:16:34.852Z,17.24
2022-09-10T12:19:07.523Z,17.27
2022-09-10T12:21:39.577Z,17.16
2022-09-10T12:24:26.867Z,17.27
2022-09-10T12:26:57.239Z,17.34
2022-09-10T12:29:29.619Z,17.22
2022-09-10T12:32:28.671Z,17.30
2022-09-10T12:35:47.697Z,17.35
2022-09-10T12:38:51.469Z,17.45
2022-09-10T12:41:56.741Z,17.35
2022-09-10T12:44:52.554Z,17.28
2022-09-10T12:47:46.852Z,17.29
2022-09-10T12:50:45.966Z,17.21
2022-09-10T12:53:55.644Z,17.25
2022-09-10T12:56:57.322Z,17.41
2022-09-10T13:00:01.082Z,17.40
2022-09-10T13:02:32.977Z,17.39
2022-09-10T13:05:06.248Z,17.34
2022-09-10T13:07:41.703Z,17.26
2022-09-10T13:10:22.107Z,17.46
2022-09-10T13:12:55.315Z,17.42
2022-09-10T13:15:27.954Z,17.37
2022-09-10T13:18:31.384Z,17.46
2022-09-10T13:21:01.070Z,17.43
2022-09-10T13:23:50.178Z,17.43
2022-09-10T13:26:52.530Z,17.52
2022-09-10T13:29:35.033Z,17.44
2022-09-10T13:32:11.221Z,17.45
2022-09-10T13:35:12.491Z,17.67
2022-09-10T13:38:19.024Z,17.56
2022-09-10T13:41:03.664Z,17.52
2022-09-10T13:44:04.447Z,17.62
2022-09-10T13:46:36.597Z,17.61
2022-09-10T13:49:12.629Z,17.54
2022-09-10T13:51:50.337Z,17.42
2022-09-10T13:54:33.071Z,17.35
2022-09-10T13:57:07.308Z,17.29
2022-09-10T13:59:38.385Z,17.41
2022-09-10T14:02:06.509Z,17.39
2022-09-10T14:04:41.890Z,17.39
2022-09-10T14:07:16.394Z,17.34
2022-09-10T14:09:47.566Z,17.43
2022-09-10T14:12:16.707Z,17.47
2022-09-10T14:14:48.962Z,17.62
2022-09-10T14:17:21.505Z,17.58
2022-09-10T14:19:58.072Z,17.61
2022-09-10T14:22:26.972Z,17.60
2022-09-10T14:24:57.331Z,17.52
2022-09-10T14:27:27.264Z,17.54
2022-09-10T14:29:57.442Z,17.58
2022-09-10T14:32:33.362Z,17.55
2022-09-10T14:35:43.174Z,17.65
2022-09-10T14:38:24.443Z,17.63
2022-09-10T14:40:58.405Z,17.59
2022-09-10T14:43:32.422Z,17.67
2022-09-10T14:46:01.091Z,17.66
2022-09-10T14:48:38.602Z,17.58
2022-09-10T14:51:17.667Z,17.57
2022-09-10T14:53:47.139Z,17.48
2022-09-10T14:56:26.442Z,17.48
2022-09-10T14:59:00.338Z,17.56
2022-09-10T15:01:29.510Z,17.54
2022-09-10T15:03:59.353Z,17.61
2022-09-10T15:06:28.991Z,17.65
2022-09-10T15:08:57.200Z,17.65
2022-09-10T15:11:27.781Z,17.68
2022-09-10T15:13:58.796Z,17.62
2022-09-10T15:16:27.664Z,17.60
2022-09-10T15:18:56.008Z,17.58
2022-09-10T15:21:24.345Z,17.84
2022-09-10T15:23:53.938Z,17.87
2022-09-10T15:26:25.471Z,17.91
2022-09-10T15:28:53.959Z,17.87
2022-09-10T15:31:23.309Z,17.95
2022-09-10T15:33:52.961Z,17.78
2022-09-10T15:36:22.525Z,18.01
2022-09-10T15:38:54.114Z,17.90
2022-09-10T15:41:22.694Z,17.78
2022-09-10T15:43:51.035Z,17.92
2022-09-10T15:46:20.989Z,17.81
2022-09-10T15:48:49.921Z,17.72
2022-09-10T15:51:21.441Z,17.61
2022-09-10T15:53:51.047Z,17.60
2022-09-10T15:56:22.458Z,17.60
2022-09-10T15:58:55.283Z,17.61
2022-09-10T16:01:27.808Z,17.75
2022-09-10T16:03:58.035Z,17.79
2022-09-10T16:06:30.604Z,17.70
2022-09-10T16:09:02.062Z,17.53
2022-09-10T16:11:33.911Z,17.51
2022-09-10T16:14:04.905Z,17.45
2022-09-10T16:16:42.429Z,17.49
2022-09-10T16:19:13.237Z,17.53
2022-09-10T16:21:45.849Z,17.86
2022-09-10T16:24:14.332Z,17.77
2022-09-10T16:26:45.952Z,17.75
2022-09-10T16:29:18.469Z,17.72
2022-09-10T16:31:46.994Z,17.61
2022-09-10T16:34:18.473Z,17.61
2022-09-10T16:36:48.848Z,17.63
2022-09-10T16:39:20.829Z,17.63
2022-09-10T16:41:52.007Z,17.79
2022-09-10T16:44:20.804Z,17.76
2022-09-10T16:46:59.381Z,17.85
2022-09-10T16:49:33.661Z,17.75
2022-09-10T16:52:08.135Z,18.20
2022-09-10T16:54:38.467Z,18.07
2022-09-10T16:57:09.982Z,17.92
2022-09-10T16:59:38.146Z,17.86
2022-09-10T17:02:07.561Z,17.91
2022-09-10T17:04:35.878Z,17.87
2022-09-10T17:07:03.909Z,17.78
2022-09-10T17:09:32.151Z,17.76
2022-09-10T17:12:00.692Z,17.90
2022-09-10T17:14:30.211Z,17.90
2022-09-10T17:16:58.711Z,17.85
2022-09-10T17:19:28.987Z,17.85
2022-09-10T17:21:57.069Z,17.99
2022-09-10T17:24:27.217Z,18.06
2022-09-10T17:26:55.500Z,17.99
2022-09-10T17:29:25.066Z,17.86
2022-09-10T17:31:55.575Z,17.87
2022-09-10T17:34:24.586Z,17.95
2022-09-10T17:36:53.182Z,17.81
2022-09-10T17:39:21.848Z,17.76
2022-09-10T17:41:50.287Z,17.73
2022-09-10T17:44:18.626Z,17.72
2022-09-10T17:46:46.659Z,17.70
2022-09-10T17:49:16.852Z,17.71
2022-09-10T17:51:45.342Z,17.68
2022-09-10T17:54:14.049Z,17.66
2022-09-10T17:56:43.451Z,17.65
2022-09-10T17:59:14.517Z,17.68
2022-09-10T18:01:43.247Z,17.66
2022-09-10T18:04:14.430Z,17.66
2022-09-10T18:06:48.953Z,17.63
2022-09-10T18:09:28.192Z,17.71
2022-09-10T18:11:56.867Z,17.70
2022-09-10T18:14:25.809Z,17.73
2022-09-10T18:16:55.580Z,17.87
2022-09-10T18:19:23.948Z,17.73
2022-09-10T18:21:53.501Z,17.65
2022-09-10T18:24:23.817Z,17.58
2022-09-10T18:26:54.758Z,17.58
2022-09-10T18:29:25.182Z,17.53
2022-09-10T18:31:55.812Z,17.53
2022-09-10T18:34:27.738Z,17.54
2022-09-10T18:36:59.722Z,17.48
2022-09-10T18:39:29.726Z,17.43
2022-09-10T18:41:58.942Z,17.42
2022-09-10T18:44:30.068Z,17.42
2022-09-10T18:46:58.626Z,17.42
2022-09-10T18:49:28.098Z,17.39
2022-09-10T18:51:58.095Z,17.52
2022-09-10T18:54:29.292Z,17.50
2022-09-10T18:56:58.747Z,17.78
2022-09-10T18:59:27.409Z,17.66
2022-09-10T19:01:58.666Z,17.55
2022-09-10T19:04:28.469Z,17.51
2022-09-10T19:06:59.302Z,17.60
2022-09-10T19:09:29.106Z,17.58
2022-09-10T19:11:59.048Z,17.56
2022-09-10T19:14:29.507Z,17.49
2022-09-10T19:17:02.365Z,17.44
2022-09-10T19:19:32.621Z,17.44
2022-09-10T19:22:07.003Z,17.43
2022-09-10T19:27:23.653Z,17.38
2022-09-10T19:29:52.282Z,17.35
2022-09-10T19:32:21.099Z,17.43
2022-09-10T19:34:50.602Z,17.39
2022-09-10T19:37:20.887Z,17.37
2022-09-10T19:39:49.115Z,17.35
2022-09-10T19:42:17.296Z,17.30
2022-09-10T19:44:45.261Z,17.26
2022-09-10T19:47:13.387Z,17.19
2022-09-10T19:49:41.430Z,17.19
2022-09-10T19:52:14.916Z,17.21
2022-09-10T19:54:44.338Z,17.13
2022-09-10T19:57:12.599Z,17.15
2022-09-10T19:59:40.916Z,17.09
2022-09-10T20:02:10.806Z,17.09
2022-09-10T20:04:38.908Z,17.08
2022-09-10T20:07:07.424Z,17.05
2022-09-10T20:09:39.702Z,17.06
2022-09-10T20:12:10.853Z,17.06
2022-09-10T20:14:39.053Z,17.03
2022-09-10T20:17:07.281Z,17.02
2022-09-10T20:19:35.678Z,17.02
2022-09-10T20:22:04.346Z,16.97
2022-09-10T20:24:32.412Z,17.00
2022-09-10T20:27:00.669Z,16.95
2022-09-10T20:29:33.106Z,16.93
2022-09-10T20:32:01.588Z,16.94
2022-09-10T20:34:31.363Z,16.92
2022-09-10T20:36:59.968Z,16.91
2022-09-10T20:39:28.127Z,16.87
2022-09-10T20:41:56.188Z,16.88
2022-09-10T20:44:24.110Z,16.94
2022-09-10T20:46:53.539Z,16.88
2022-09-10T20:49:21.561Z,16.94
2022-09-10T20:51:49.569Z,17.00
2022-09-10T20:54:19.085Z,16.90
2022-09-10T20:56:47.455Z,16.86
2022-09-10T20:59:16.869Z,16.86
2022-09-10T21:01:47.025Z,16.87
2022-09-10T21:04:16.466Z,16.81
2022-09-10T21:06:44.497Z,16.80
2022-09-10T21:09:13.510Z,16.85
2022-09-10T21:11:43.529Z,16.84
2022-09-10T21:14:13.374Z,16.85
2022-09-10T21:16:43.177Z,16.84
2022-09-10T21:19:13.748Z,16.87
2022-09-10T21:21:45.724Z,16.87
2022-09-10T21:24:16.620Z,16.87
2022-09-10T21:26:45.307Z,16.87
2022-09-10T21:29:15.047Z,16.88
2022-09-10T21:31:43.749Z,16.86
2022-09-10T21:34:12.057Z,16.87
2022-09-10T21:36:41.090Z,16.83
2022-09-10T21:39:13.958Z,16.76
2022-09-10T21:41:44.026Z,16.78
2022-09-10T21:44:14.116Z,16.79
2022-09-10T21:46:42.709Z,16.75
2022-09-10T21:49:11.084Z,16.70
2022-09-10T21:51:39.103Z,16.77
2022-09-10T21:54:07.470Z,16.72
2022-09-10T21:56:36.839Z,16.73
2022-09-10T21:59:04.801Z,16.68
2022-09-10T22:01:33.545Z,16.72
2022-09-10T22:04:02.255Z,16.63
2022-09-10T22:06:31.678Z,16.64
2022-09-10T22:09:01.508Z,16.62
2022-09-10T22:11:31.547Z,16.60
2022-09-10T22:14:04.800Z,16.55
2022-09-10T22:16:34.716Z,16.58
2022-09-10T22:19:05.445Z,16.51
2022-09-10T22:21:33.764Z,16.50
2022-09-10T22:24:01.702Z,16.54
2022-09-10T22:26:29.803Z,16.50
2022-09-10T22:29:00.822Z,16.58
2022-09-10T22:31:31.476Z,16.54
2022-09-10T22:34:01.503Z,16.41
2022-09-10T22:36:31.974Z,16.49
2022-09-10T22:39:01.635Z,16.45
2022-09-10T22:41:31.676Z,16.47
2022-09-10T22:44:01.605Z,16.56
2022-09-10T22:46:30.626Z,16.52
2022-09-10T22:48:59.275Z,16.47
2022-09-10T22:51:29.571Z,16.54
2022-09-10T22:53:59.052Z,16.50
2022-09-10T22:56:28.363Z,16.53
2022-09-10T22:58:57.923Z,16.49
2022-09-10T23:01:28.944Z,16.53
2022-09-10T23:03:57.882Z,16.49
2022-09-10T23:06:28.314Z,16.53
2022-09-10T23:09:02.317Z,16.45
2022-09-10T23:11:32.088Z,16.43
2022-09-10T23:14:02.195Z,16.38
2022-09-10T23:16:34.204Z,16.42
2022-09-10T23:19:03.878Z,16.37
2022-09-10T23:21:36.642Z,16.37
2022-09-10T23:24:07.358Z,16.36
2022-09-10T23:26:38.257Z,16.28
2022-09-10T23:29:06.569Z,16.29
2022-09-10T23:31:37.967Z,16.25
2022-09-10T23:34:07.882Z,16.26
2022-09-10T23:36:37.370Z,16.24
2022-09-10T23:39:08.000Z,16.23
2022-09-10T23:41:36.874Z,16.14
2022-09-10T23:44:05.034Z,16.16
2022-09-10T23:46:34.032Z,16.11
2022-09-10T23:49:03.930Z,16.02
2022-09-10T23:51:31.904Z,16.05
2022-09-10T23:53:59.789Z,16.05
2022-09-10T23:56:28.575Z,16.02
2022-09-10T23:58:58.041Z,15.97
